KDYT

Sky Harbor Airport

Duluth, Minnesota, USA
METAR KDYT 250055Z AUTO 00000KT 1/4SM FG OVC002 12/11 A2986 RMK AO2
Observed Flight Rules
May-25 @ 00:55 UTC (8 minutes ago) Instrument Flight Rules
Visibility Clouds Conditions
1/4 miles
  • Overcast at 200' AGL
  • Fog
Temperatures Readings
Current 12°C / 54°F
Dewpoint 11°C / 52°F
Humidity 94%
Altimeter 29.86" Hg
Pressure 1011 hPa
Elevation 186
METAR KDYT 250055Z AUTO 00000KT 1/4SM FG OVC002 12/11 A2986 RMK AO2
Observed Flight Rules
May-25 @ 00:55 UTC
(8 minutes ago)
LIFR
Clouds
  • Overcast at 200' AGL
Conditions
  • Fog
Temperature Dewpoint
12°C / 54°F 11°C / 52°F
Humidity Altimeter Pressure
94% 29.86" Hg 1011 hPa